createdAt,value
2017-02-24T00:00:40.105Z,0
2017-02-24T00:01:49.828Z,0
2017-02-24T00:02:59.305Z,0
2017-02-24T00:04:09.871Z,0
2017-02-24T00:05:19.211Z,0
2017-02-24T00:06:28.534Z,0
2017-02-24T00:07:38.266Z,0
2017-02-24T00:08:48.160Z,0
2017-02-24T00:09:57.476Z,0
2017-02-24T00:11:07.206Z,0
2017-02-24T00:12:17.350Z,0
2017-02-24T00:13:26.685Z,0
2017-02-24T00:14:36.459Z,0
2017-02-24T00:15:46.593Z,0
2017-02-24T00:16:55.504Z,0
2017-02-24T00:18:04.417Z,0
2017-02-24T00:19:13.328Z,0
2017-02-24T00:20:22.915Z,0
2017-02-24T00:21:31.881Z,0
2017-02-24T00:22:40.811Z,0
2017-02-24T00:23:50.555Z,0
2017-02-24T00:25:00.709Z,0
2017-02-24T00:26:10.182Z,0
2017-02-24T00:27:19.501Z,0
2017-02-24T00:28:30.046Z,0
2017-02-24T00:29:39.360Z,0
2017-02-24T00:30:49.524Z,0
2017-02-24T00:31:59.524Z,0
2017-02-24T00:33:08.456Z,0
2017-02-24T00:34:17.817Z,0
2017-02-24T00:35:27.538Z,0
2017-02-24T00:36:36.459Z,0
2017-02-24T00:37:45.520Z,0
2017-02-24T00:38:55.251Z,0
2017-02-24T00:40:04.599Z,0
2017-02-24T00:41:14.332Z,0
2017-02-24T00:42:23.244Z,0
2017-02-24T00:43:32.965Z,0
2017-02-24T00:44:42.309Z,0
2017-02-24T00:45:51.217Z,0
2017-02-24T00:47:00.954Z,0
2017-02-24T00:48:09.876Z,0
2017-02-24T00:49:19.330Z,0
2017-02-24T00:50:29.460Z,0
2017-02-24T00:51:38.391Z,0
2017-02-24T00:52:47.706Z,0
2017-02-24T00:53:57.866Z,0
2017-02-24T00:55:07.758Z,0
2017-02-24T00:56:17.513Z,0
2017-02-24T00:57:26.835Z,0
2017-02-24T00:58:36.169Z,0
2017-02-24T00:59:45.891Z,0
2017-02-24T01:00:55.897Z,0
2017-02-24T01:02:05.215Z,0
2017-02-24T01:03:14.956Z,0
2017-02-24T01:04:24.681Z,0
2017-02-24T01:05:33.604Z,0
2017-02-24T01:06:43.137Z,0
2017-02-24T01:07:52.080Z,0
2017-02-24T01:09:01.033Z,0
2017-02-24T01:10:10.795Z,0
2017-02-24T01:11:20.124Z,0
2017-02-24T01:12:29.660Z,0
2017-02-24T01:13:38.566Z,0
2017-02-24T01:14:48.303Z,0
2017-02-24T01:15:57.214Z,0
2017-02-24T01:17:06.546Z,0
2017-02-24T01:18:16.019Z,0
2017-02-24T01:19:26.167Z,0
2017-02-24T01:20:36.307Z,0
2017-02-24T01:21:46.860Z,0
2017-02-24T01:22:56.192Z,0
2017-02-24T01:24:06.326Z,0
2017-02-24T01:25:16.071Z,0
2017-02-24T01:26:24.981Z,0
2017-02-24T01:27:33.899Z,0
2017-02-24T01:28:43.226Z,0
2017-02-24T01:29:52.988Z,0
2017-02-24T01:31:02.729Z,0
2017-02-24T01:32:12.053Z,0
2017-02-24T01:33:20.970Z,0
2017-02-24T01:34:30.292Z,0
2017-02-24T01:35:40.066Z,0
2017-02-24T01:36:50.624Z,0
2017-02-24T01:37:59.978Z,0
2017-02-24T01:39:09.719Z,0
2017-02-24T01:40:19.036Z,0
2017-02-24T01:41:28.294Z,0
2017-02-24T01:42:37.213Z,0
2017-02-24T01:43:46.940Z,0
2017-02-24T01:44:57.481Z,0
2017-02-24T01:46:07.219Z,0
2017-02-24T01:47:17.532Z,0
2017-02-24T01:48:26.846Z,0
2017-02-24T01:49:36.168Z,0
2017-02-24T01:50:46.324Z,0
2017-02-24T01:51:56.050Z,0
2017-02-24T01:53:05.436Z,0
2017-02-24T01:54:14.775Z,0
2017-02-24T01:55:24.518Z,0
2017-02-24T01:56:33.892Z,0
2017-02-24T01:57:43.225Z,0
2017-02-24T01:58:52.537Z,0
2017-02-24T02:00:02.682Z,0
2017-02-24T02:01:12.421Z,0
2017-02-24T02:02:21.735Z,0
2017-02-24T02:03:31.056Z,0
2017-02-24T02:04:40.414Z,0
2017-02-24T02:05:49.319Z,0
2017-02-24T02:06:58.686Z,0
2017-02-24T02:08:08.004Z,0
2017-02-24T02:09:16.915Z,0
2017-02-24T02:10:26.411Z,0
2017-02-24T02:11:36.158Z,0
2017-02-24T02:12:45.484Z,0
2017-02-24T02:13:55.215Z,0
2017-02-24T02:15:04.958Z,0
2017-02-24T02:16:13.927Z,0
2017-02-24T02:17:23.662Z,0
2017-02-24T02:18:32.574Z,0
2017-02-24T02:19:42.303Z,0
2017-02-24T02:20:51.632Z,0
2017-02-24T02:22:01.028Z,0
2017-02-24T02:23:10.753Z,0
2017-02-24T02:24:19.731Z,0
2017-02-24T02:25:29.872Z,0
2017-02-24T02:26:38.786Z,0
2017-02-24T02:27:48.524Z,0
2017-02-24T02:28:58.672Z,0
2017-02-24T02:30:08.019Z,0
2017-02-24T02:31:17.768Z,0
2017-02-24T02:32:27.515Z,0
2017-02-24T02:33:37.808Z,0
2017-02-24T02:34:48.353Z,0
2017-02-24T02:35:58.484Z,0
2017-02-24T02:37:07.812Z,0
2017-02-24T02:38:17.135Z,0
2017-02-24T02:39:27.315Z,0
2017-02-24T02:40:36.630Z,0
2017-02-24T02:41:45.957Z,0
2017-02-24T02:42:55.682Z,0
2017-02-24T02:44:05.408Z,0
2017-02-24T02:45:15.720Z,0
2017-02-24T02:46:25.477Z,0
2017-02-24T02:47:34.809Z,0
2017-02-24T02:48:44.546Z,0
2017-02-24T02:49:53.875Z,0
2017-02-24T02:51:03.054Z,0
2017-02-24T02:52:12.372Z,0
2017-02-24T02:53:21.697Z,0
2017-02-24T02:54:31.035Z,0
2017-02-24T02:55:39.950Z,0
2017-02-24T02:56:50.192Z,0
2017-02-24T02:57:59.519Z,0
2017-02-24T02:59:09.682Z,0
2017-02-24T03:00:19.402Z,0
2017-02-24T03:01:29.958Z,0
2017-02-24T03:02:39.764Z,0
2017-02-24T03:03:49.089Z,0
2017-02-24T03:04:58.003Z,0
2017-02-24T03:06:07.343Z,0
2017-02-24T03:07:16.678Z,0
2017-02-24T03:08:27.307Z,0
2017-02-24T03:09:37.048Z,0
2017-02-24T03:10:46.368Z,0
2017-02-24T03:11:55.295Z,0
2017-02-24T03:13:05.044Z,0
2017-02-24T03:14:14.924Z,0
2017-02-24T03:15:25.084Z,0
2017-02-24T03:16:35.230Z,0
2017-02-24T03:17:44.541Z,0
2017-02-24T03:18:54.285Z,0
2017-02-24T03:20:04.169Z,0
2017-02-24T03:21:13.493Z,0
2017-02-24T03:22:23.227Z,0
2017-02-24T03:23:32.556Z,0
2017-02-24T03:24:42.298Z,0
2017-02-24T03:25:52.230Z,0
2017-02-24T03:27:01.956Z,0
2017-02-24T03:28:11.268Z,0
2017-02-24T03:29:20.600Z,0
2017-02-24T03:30:29.506Z,0
2017-02-24T03:31:40.126Z,0
2017-02-24T03:32:50.277Z,0
2017-02-24T03:33:59.209Z,0
2017-02-24T03:35:09.753Z,0
2017-02-24T03:36:19.489Z,0
2017-02-24T03:37:29.522Z,0
2017-02-24T03:38:38.853Z,0
2017-02-24T03:39:47.776Z,0
2017-02-24T03:40:57.121Z,0
2017-02-24T03:42:06.858Z,0
2017-02-24T03:43:16.340Z,0
2017-02-24T03:44:26.074Z,0
2017-02-24T03:45:35.810Z,0
2017-02-24T03:46:46.373Z,0
2017-02-24T03:47:56.124Z,0
2017-02-24T03:49:05.618Z,0
2017-02-24T03:50:15.367Z,0
2017-02-24T03:51:25.104Z,0
2017-02-24T03:52:34.829Z,0
2017-02-24T03:53:44.608Z,0
2017-02-24T03:54:54.104Z,0
2017-02-24T03:56:03.833Z,0
2017-02-24T03:57:13.962Z,0
2017-02-24T03:58:22.876Z,0
2017-02-24T03:59:32.193Z,0
2017-02-24T04:00:42.587Z,0
2017-02-24T04:01:52.744Z,0
2017-02-24T04:03:02.055Z,0
2017-02-24T04:04:11.792Z,0
2017-02-24T04:05:20.717Z,0
2017-02-24T04:06:31.147Z,0
2017-02-24T04:07:40.877Z,0
2017-02-24T04:08:50.223Z,0
2017-02-24T04:09:59.965Z,0
2017-02-24T04:11:09.731Z,0
2017-02-24T04:12:19.723Z,0
2017-02-24T04:13:29.442Z,0
2017-02-24T04:14:38.758Z,0
2017-02-24T04:15:48.076Z,0
2017-02-24T04:16:57.408Z,0
2017-02-24T04:18:07.594Z,0
2017-02-24T04:19:16.935Z,0
2017-02-24T04:20:26.251Z,0
2017-02-24T04:21:35.167Z,0
2017-02-24T04:22:45.366Z,0
2017-02-24T04:23:54.935Z,0
2017-02-24T04:25:04.665Z,0
2017-02-24T04:26:14.422Z,0
2017-02-24T04:27:24.971Z,0
2017-02-24T04:28:35.112Z,0
2017-02-24T04:29:45.005Z,0
2017-02-24T04:30:55.169Z,0
2017-02-24T04:32:04.505Z,0
2017-02-24T04:33:15.084Z,0
2017-02-24T04:34:24.853Z,0
2017-02-24T04:35:34.337Z,0
2017-02-24T04:36:43.673Z,0
2017-02-24T04:37:52.994Z,0
2017-02-24T04:39:02.309Z,0
2017-02-24T04:40:12.041Z,0
2017-02-24T04:41:21.200Z,0
2017-02-24T04:42:30.526Z,0
2017-02-24T04:43:39.440Z,0
2017-02-24T04:44:49.174Z,0
2017-02-24T04:45:58.501Z,0
2017-02-24T04:47:08.228Z,0
2017-02-24T04:48:17.571Z,0
2017-02-24T04:49:27.299Z,0
2017-02-24T04:50:36.212Z,0
2017-02-24T04:51:45.956Z,0
2017-02-24T04:52:55.421Z,0
2017-02-24T04:54:05.143Z,0
2017-02-24T04:55:14.054Z,0
2017-02-24T04:56:23.776Z,0
2017-02-24T04:57:33.940Z,0
2017-02-24T04:58:43.325Z,0
2017-02-24T04:59:52.242Z,0
2017-02-24T05:01:01.978Z,0
2017-02-24T05:02:12.113Z,0
2017-02-24T05:03:22.244Z,0
2017-02-24T05:04:31.619Z,0
2017-02-24T05:05:41.788Z,0
2017-02-24T05:06:51.932Z,0
2017-02-24T05:08:02.085Z,0
2017-02-24T05:09:11.827Z,0
2017-02-24T05:10:21.269Z,0
2017-02-24T05:11:30.589Z,0
2017-02-24T05:12:40.324Z,0
2017-02-24T05:13:49.670Z,0
2017-02-24T05:14:58.581Z,0
2017-02-24T05:16:07.959Z,0
2017-02-24T05:17:17.289Z,0
2017-02-24T05:18:26.617Z,0
2017-02-24T05:19:35.546Z,0
2017-02-24T05:20:44.871Z,0
2017-02-24T05:21:54.312Z,0
2017-02-24T05:23:04.037Z,0
2017-02-24T05:24:12.964Z,0
2017-02-24T05:25:22.297Z,0
2017-02-24T05:26:31.207Z,0
2017-02-24T05:27:40.782Z,0
2017-02-24T05:28:49.700Z,0
2017-02-24T05:29:58.631Z,0
2017-02-24T05:31:07.954Z,0
2017-02-24T05:32:16.870Z,0
2017-02-24T05:33:26.664Z,0
2017-02-24T05:34:36.397Z,0
2017-02-24T05:35:45.723Z,0
2017-02-24T05:36:54.645Z,0
2017-02-24T05:38:03.960Z,0
2017-02-24T05:39:13.689Z,0
2017-02-24T05:40:23.017Z,0
2017-02-24T05:41:32.766Z,0
2017-02-24T05:42:42.089Z,0
2017-02-24T05:43:51.434Z,0
2017-02-24T05:45:00.529Z,0
2017-02-24T05:46:09.860Z,0
2017-02-24T05:47:19.624Z,0
2017-02-24T05:48:29.002Z,0
2017-02-24T05:49:38.337Z,0
2017-02-24T05:50:48.210Z,0
2017-02-24T05:51:57.962Z,0
2017-02-24T05:53:07.293Z,0
2017-02-24T05:54:16.612Z,0
2017-02-24T05:55:26.343Z,4
2017-02-24T05:56:35.426Z,0
2017-02-24T05:57:45.170Z,4
2017-02-24T05:58:54.080Z,4
2017-02-24T06:00:04.228Z,4
2017-02-24T06:01:13.542Z,0
2017-02-24T06:02:23.391Z,4
2017-02-24T06:03:32.715Z,8
2017-02-24T06:04:42.078Z,8
2017-02-24T06:05:51.421Z,8
2017-02-24T06:07:00.752Z,4
2017-02-24T06:08:10.328Z,8
2017-02-24T06:09:20.059Z,8
2017-02-24T06:10:29.388Z,16
2017-02-24T06:11:39.119Z,24
2017-02-24T06:12:48.478Z,28
2017-02-24T06:13:58.484Z,32
2017-02-24T06:15:07.801Z,32
2017-02-24T06:16:17.286Z,40
2017-02-24T06:17:26.638Z,36
2017-02-24T06:18:35.973Z,40
2017-02-24T06:19:46.823Z,48
2017-02-24T06:20:56.568Z,64
2017-02-24T06:22:05.916Z,64
2017-02-24T06:23:14.841Z,100
2017-02-24T06:24:24.576Z,140
2017-02-24T06:25:34.362Z,144
2017-02-24T06:26:43.331Z,144
2017-02-24T06:27:52.685Z,144
2017-02-24T06:29:02.004Z,156
2017-02-24T06:30:12.142Z,168
2017-02-24T06:31:21.886Z,164
2017-02-24T06:32:31.269Z,156
2017-02-24T06:33:40.193Z,180
2017-02-24T06:34:49.325Z,192
2017-02-24T06:35:58.652Z,180
2017-02-24T06:37:07.594Z,172
2017-02-24T06:38:16.933Z,172
2017-02-24T06:39:25.861Z,184
2017-02-24T06:40:35.623Z,200
2017-02-24T06:41:45.345Z,224
2017-02-24T06:42:55.086Z,224
2017-02-24T06:44:04.815Z,304
2017-02-24T06:45:14.158Z,352
2017-02-24T06:46:23.883Z,428
2017-02-24T06:47:33.196Z,436
2017-02-24T06:48:42.521Z,392
2017-02-24T06:49:51.846Z,524
2017-02-24T06:51:01.981Z,556
2017-02-24T06:52:11.335Z,520
2017-02-24T06:53:20.669Z,536
2017-02-24T06:54:29.582Z,524
2017-02-24T06:55:38.904Z,680
2017-02-24T06:56:48.381Z,608
2017-02-24T06:57:57.304Z,604
2017-02-24T06:59:06.227Z,816
2017-02-24T07:00:15.550Z,864
2017-02-24T07:01:24.883Z,828
2017-02-24T07:02:34.365Z,828
2017-02-24T07:03:43.737Z,1008
2017-02-24T07:04:53.476Z,1156
2017-02-24T07:06:02.800Z,1196
2017-02-24T07:07:12.951Z,1236
2017-02-24T07:08:22.051Z,1320
2017-02-24T07:09:31.807Z,1368
2017-02-24T07:10:40.732Z,1412
2017-02-24T07:11:49.662Z,1404
2017-02-24T07:12:59.388Z,1416
2017-02-24T07:14:09.274Z,1456
2017-02-24T07:15:18.604Z,1412
2017-02-24T07:16:27.536Z,1408
2017-02-24T07:17:37.323Z,1464
2017-02-24T07:18:47.080Z,1492
2017-02-24T07:19:57.323Z,1528
2017-02-24T07:21:06.262Z,1584
2017-02-24T07:22:16.405Z,1604
2017-02-24T07:23:26.168Z,1580
2017-02-24T07:24:35.496Z,1660
2017-02-24T07:25:44.506Z,1728
2017-02-24T07:26:53.839Z,1776
2017-02-24T07:28:02.781Z,1884
2017-02-24T07:29:12.118Z,1956
2017-02-24T07:30:21.042Z,2024
2017-02-24T07:31:30.108Z,2152
2017-02-24T07:32:39.438Z,2196
2017-02-24T07:33:48.355Z,2340
2017-02-24T07:34:58.918Z,2504
2017-02-24T07:36:07.847Z,2716
2017-02-24T07:37:17.007Z,2816
2017-02-24T07:38:26.739Z,2912
2017-02-24T07:39:36.057Z,2996
2017-02-24T07:40:45.797Z,2996
2017-02-24T07:41:55.125Z,3160
2017-02-24T07:43:05.169Z,2988
2017-02-24T07:44:14.903Z,3240
2017-02-24T07:45:24.230Z,3212
2017-02-24T07:46:33.572Z,3240
2017-02-24T07:47:42.488Z,3316
2017-02-24T07:48:51.848Z,3404
2017-02-24T07:50:00.787Z,3500
2017-02-24T07:51:10.521Z,3508
2017-02-24T07:52:19.445Z,3568
2017-02-24T07:53:29.173Z,3652
2017-02-24T07:54:38.142Z,3592
2017-02-24T07:55:47.875Z,3536
2017-02-24T07:56:56.809Z,3404
2017-02-24T07:58:06.143Z,3280
2017-02-24T07:59:15.917Z,3120
2017-02-24T08:00:25.070Z,2984
2017-02-24T08:01:34.407Z,2844
2017-02-24T08:02:43.722Z,2732
2017-02-24T08:03:53.061Z,2672
2017-02-24T08:05:01.977Z,2604
2017-02-24T08:06:11.866Z,2484
2017-02-24T08:07:21.213Z,2460
2017-02-24T08:08:30.561Z,2448
2017-02-24T08:09:39.888Z,2432
2017-02-24T08:10:49.221Z,2452
2017-02-24T08:11:58.190Z,2484
2017-02-24T08:13:07.515Z,2508
2017-02-24T08:14:16.829Z,2548
2017-02-24T08:15:25.755Z,2620
2017-02-24T08:16:34.690Z,2680
2017-02-24T08:17:44.781Z,2716
2017-02-24T08:18:54.112Z,2796
2017-02-24T08:20:04.280Z,2852
2017-02-24T08:21:14.011Z,2920
2017-02-24T08:22:22.934Z,2996
2017-02-24T08:23:32.029Z,3052
2017-02-24T08:24:41.778Z,3116
2017-02-24T08:25:51.512Z,3156
2017-02-24T08:27:00.431Z,3236
2017-02-24T08:28:09.768Z,3284
2017-02-24T08:29:19.361Z,3292
2017-02-24T08:30:29.501Z,3304
2017-02-24T08:31:39.645Z,3332
2017-02-24T08:32:48.965Z,3352
2017-02-24T08:33:58.727Z,3368
2017-02-24T08:35:08.124Z,3360
2017-02-24T08:36:17.464Z,3416
2017-02-24T08:37:26.375Z,3416
2017-02-24T08:38:35.286Z,3464
2017-02-24T08:39:45.427Z,3476
2017-02-24T08:40:54.589Z,3512
2017-02-24T08:42:03.903Z,3544
2017-02-24T08:43:13.229Z,3384
2017-02-24T08:44:22.967Z,3544
2017-02-24T08:45:32.705Z,3576
2017-02-24T08:46:42.341Z,3564
2017-02-24T08:47:52.092Z,3552
2017-02-24T08:49:01.424Z,3568
2017-02-24T08:50:10.757Z,3572
2017-02-24T08:51:20.099Z,3548
2017-02-24T08:52:30.179Z,3592
2017-02-24T08:53:39.511Z,3616
2017-02-24T08:54:49.260Z,3684
2017-02-24T08:55:59.024Z,3772
2017-02-24T08:57:08.346Z,3880
2017-02-24T08:58:18.530Z,4024
2017-02-24T08:59:27.863Z,4172
2017-02-24T09:00:37.215Z,4308
2017-02-24T09:01:47.357Z,4484
2017-02-24T09:02:56.275Z,4796
2017-02-24T09:04:05.668Z,5432
2017-02-24T09:05:14.987Z,6156
2017-02-24T09:06:24.318Z,7072
2017-02-24T09:07:33.663Z,7668
2017-02-24T09:08:43.408Z,7280
2017-02-24T09:09:53.228Z,5980
2017-02-24T09:11:02.569Z,4756
2017-02-24T09:12:12.332Z,4636
2017-02-24T09:13:21.687Z,5800
2017-02-24T09:14:31.025Z,6568
2017-02-24T09:15:40.694Z,6952
2017-02-24T09:16:50.420Z,6244
2017-02-24T09:18:00.151Z,6368
2017-02-24T09:19:09.914Z,4528
2017-02-24T09:20:18.860Z,4408
2017-02-24T09:21:27.920Z,4336
2017-02-24T09:22:37.651Z,3892
2017-02-24T09:23:47.405Z,3844
2017-02-24T09:24:56.723Z,3500
2017-02-24T09:26:06.060Z,3788
2017-02-24T09:27:15.121Z,4656
2017-02-24T09:28:24.040Z,5508
2017-02-24T09:29:33.378Z,5916
2017-02-24T09:30:42.721Z,5396
2017-02-24T09:31:51.673Z,5520
2017-02-24T09:33:01.266Z,5888
2017-02-24T09:34:10.602Z,6164
2017-02-24T09:35:20.351Z,7296
2017-02-24T09:36:29.665Z,6648
2017-02-24T09:37:38.590Z,6988
2017-02-24T09:38:47.974Z,4412
2017-02-24T09:39:57.705Z,4212
2017-02-24T09:41:07.072Z,5448
2017-02-24T09:42:15.990Z,6280
2017-02-24T09:43:25.322Z,7196
2017-02-24T09:44:35.104Z,7884
2017-02-24T09:45:44.451Z,8428
2017-02-24T09:46:53.794Z,4848
2017-02-24T09:48:03.521Z,3708
2017-02-24T09:49:12.841Z,3748
2017-02-24T09:50:22.460Z,5040
2017-02-24T09:51:31.384Z,5624
2017-02-24T09:52:40.319Z,5224
2017-02-24T09:53:49.655Z,4968
2017-02-24T09:54:58.602Z,4836
2017-02-24T09:56:07.679Z,4300
2017-02-24T09:57:17.827Z,4552
2017-02-24T09:58:26.774Z,5232
2017-02-24T09:59:36.133Z,6188
2017-02-24T10:00:45.909Z,6536
2017-02-24T10:01:55.383Z,6872
2017-02-24T10:03:04.707Z,7040
2017-02-24T10:04:14.431Z,7704
2017-02-24T10:05:24.164Z,6136
2017-02-24T10:06:33.092Z,6972
2017-02-24T10:07:42.522Z,7464
2017-02-24T10:08:51.854Z,9264
2017-02-24T10:10:01.202Z,7772
2017-02-24T10:11:10.969Z,8896
2017-02-24T10:12:19.883Z,7952
2017-02-24T10:13:29.745Z,6564
2017-02-24T10:14:39.092Z,6528
2017-02-24T10:15:48.014Z,6808
2017-02-24T10:16:57.755Z,8196
2017-02-24T10:18:06.680Z,8768
2017-02-24T10:19:16.554Z,9096
2017-02-24T10:20:26.285Z,10968
2017-02-24T10:21:35.625Z,11032
2017-02-24T10:22:45.379Z,9248
2017-02-24T10:23:55.136Z,7080
2017-02-24T10:25:04.319Z,7328
2017-02-24T10:26:14.065Z,8056
2017-02-24T10:27:22.991Z,7140
2017-02-24T10:28:32.759Z,6728
2017-02-24T10:29:41.677Z,7188
2017-02-24T10:30:51.512Z,7048
2017-02-24T10:32:01.263Z,6476
2017-02-24T10:33:10.996Z,6848
2017-02-24T10:34:20.320Z,6636
2017-02-24T10:35:30.883Z,6932
2017-02-24T10:36:40.625Z,6780
2017-02-24T10:37:49.944Z,7012
2017-02-24T10:38:58.862Z,6616
2017-02-24T10:40:08.222Z,6768
2017-02-24T10:41:17.559Z,8032
2017-02-24T10:42:27.070Z,8832
2017-02-24T10:43:36.821Z,7700
2017-02-24T10:44:46.582Z,5660
2017-02-24T10:45:55.916Z,5056
2017-02-24T10:47:04.843Z,5340
2017-02-24T10:48:14.629Z,5396
2017-02-24T10:49:24.394Z,6504
2017-02-24T10:50:33.349Z,8512
2017-02-24T10:51:42.685Z,9240
2017-02-24T10:52:52.429Z,9988
2017-02-24T10:54:01.607Z,10240
2017-02-24T10:55:10.969Z,10300
2017-02-24T10:56:20.307Z,10716
2017-02-24T10:57:29.230Z,10504
2017-02-24T10:58:38.583Z,9452
2017-02-24T10:59:48.553Z,9784
2017-02-24T11:00:57.878Z,10448
2017-02-24T11:02:07.202Z,10124
2017-02-24T11:03:16.535Z,7128
2017-02-24T11:04:25.869Z,7720
2017-02-24T11:05:35.486Z,8380
2017-02-24T11:06:44.411Z,8636
2017-02-24T11:07:53.754Z,9500
2017-02-24T11:09:03.503Z,9548
2017-02-24T11:10:12.852Z,8036
2017-02-24T11:11:22.171Z,7188
2017-02-24T11:12:31.097Z,5724
2017-02-24T11:13:40.017Z,5176
2017-02-24T11:14:48.930Z,4720
2017-02-24T11:15:58.692Z,5600
2017-02-24T11:17:07.767Z,5484
2017-02-24T11:18:17.119Z,5416
2017-02-24T11:19:26.858Z,5032
2017-02-24T11:20:36.997Z,4928
2017-02-24T11:21:46.332Z,4816
2017-02-24T11:22:56.076Z,4808
2017-02-24T11:24:05.409Z,4872
2017-02-24T11:25:14.734Z,4916
2017-02-24T11:26:24.074Z,4964
2017-02-24T11:27:33.407Z,5076
2017-02-24T11:28:42.743Z,5196
2017-02-24T11:29:52.057Z,5248
2017-02-24T11:31:01.429Z,5260
2017-02-24T11:32:11.164Z,5124
2017-02-24T11:33:20.483Z,5008
2017-02-24T11:34:29.801Z,5000
2017-02-24T11:35:39.128Z,5008
2017-02-24T11:36:48.469Z,5100
2017-02-24T11:37:58.229Z,5164
2017-02-24T11:39:07.569Z,5328
2017-02-24T11:40:16.904Z,5516
2017-02-24T11:41:25.811Z,5804
2017-02-24T11:42:34.975Z,6332
2017-02-24T11:43:44.323Z,6916
2017-02-24T11:44:53.649Z,7356
2017-02-24T11:46:02.967Z,7772
2017-02-24T11:47:12.709Z,7424
2017-02-24T11:48:22.699Z,7648
2017-02-24T11:49:31.624Z,7352
2017-02-24T11:50:41.350Z,6804
2017-02-24T11:51:50.685Z,6320
2017-02-24T11:53:00.468Z,6428
2017-02-24T11:54:10.245Z,7244
2017-02-24T11:55:20.407Z,8776
2017-02-24T11:56:30.148Z,9632
2017-02-24T11:57:39.509Z,9424
2017-02-24T11:58:48.429Z,9120
2017-02-24T11:59:58.328Z,9492
2017-02-24T12:01:08.089Z,9564
2017-02-24T12:02:17.827Z,9028
2017-02-24T12:03:26.740Z,8256
2017-02-24T12:04:36.479Z,6360
2017-02-24T12:05:46.595Z,5800
2017-02-24T12:06:55.962Z,4488
2017-02-24T12:08:05.313Z,4056
2017-02-24T12:09:15.043Z,4064
2017-02-24T12:10:23.989Z,4920
2017-02-24T12:11:34.437Z,5784
2017-02-24T12:12:44.581Z,6256
2017-02-24T12:13:53.906Z,5904
2017-02-24T12:15:03.227Z,6292
2017-02-24T12:16:12.547Z,7032
2017-02-24T12:17:22.056Z,7324
2017-02-24T12:18:31.396Z,6104
2017-02-24T12:19:40.760Z,12304
2017-02-24T12:20:50.917Z,12316
2017-02-24T12:22:00.671Z,17600
2017-02-24T12:23:10.461Z,16864
2017-02-24T12:24:19.777Z,15712
2017-02-24T12:25:28.706Z,16864
2017-02-24T12:26:38.031Z,23264
2017-02-24T12:27:46.955Z,22080
2017-02-24T12:28:56.839Z,16736
2017-02-24T12:30:06.578Z,22656
2017-02-24T12:31:16.729Z,42144
2017-02-24T12:32:26.874Z,14156
2017-02-24T12:33:36.206Z,13276
2017-02-24T12:34:45.694Z,26528
2017-02-24T12:35:55.420Z,21344
2017-02-24T12:37:05.162Z,18976
2017-02-24T12:38:14.126Z,21824
2017-02-24T12:39:23.462Z,14772
2017-02-24T12:40:32.895Z,11740
2017-02-24T12:41:42.639Z,13768
2017-02-24T12:42:51.991Z,19072
2017-02-24T12:44:01.759Z,19840
2017-02-24T12:45:11.509Z,17216
2017-02-24T12:46:21.827Z,18144
2017-02-24T12:47:31.588Z,18112
2017-02-24T12:48:41.332Z,20288
2017-02-24T12:49:50.249Z,18464
2017-02-24T12:51:00.406Z,17728
2017-02-24T12:52:10.719Z,14644
2017-02-24T12:53:20.874Z,7360
2017-02-24T12:54:30.604Z,7392
2017-02-24T12:55:39.941Z,8180
2017-02-24T12:56:49.692Z,9864
2017-02-24T12:57:58.670Z,10356
2017-02-24T12:59:08.431Z,8912
2017-02-24T13:00:17.347Z,8456
2017-02-24T13:01:26.672Z,7732
2017-02-24T13:02:36.428Z,7984
2017-02-24T13:03:45.808Z,8172
2017-02-24T13:04:54.748Z,8792
2017-02-24T13:06:04.530Z,9876
2017-02-24T13:07:14.261Z,8792
2017-02-24T13:08:23.191Z,7036
2017-02-24T13:09:32.171Z,12220
2017-02-24T13:10:41.922Z,12336
2017-02-24T13:11:50.846Z,15872
2017-02-24T13:13:00.983Z,16544
2017-02-24T13:14:09.910Z,14460
2017-02-24T13:15:20.203Z,20608
2017-02-24T13:16:29.124Z,25472
2017-02-24T13:17:38.478Z,33536
2017-02-24T13:18:48.231Z,26464
2017-02-24T13:19:57.180Z,24640
2017-02-24T13:21:06.615Z,18976
2017-02-24T13:22:16.359Z,23168
2017-02-24T13:23:25.702Z,37184
2017-02-24T13:24:34.622Z,36832
2017-02-24T13:25:43.549Z,16448
2017-02-24T13:26:52.720Z,32864
2017-02-24T13:28:02.066Z,21312
2017-02-24T13:29:11.809Z,7712
2017-02-24T13:30:20.756Z,9012
2017-02-24T13:31:30.505Z,7852
2017-02-24T13:32:40.653Z,8716
2017-02-24T13:33:49.606Z,9072
2017-02-24T13:34:58.941Z,7932
2017-02-24T13:36:09.081Z,6180
2017-02-24T13:37:18.412Z,5308
2017-02-24T13:38:28.672Z,4712
2017-02-24T13:39:38.013Z,4280
2017-02-24T13:40:47.767Z,4096
2017-02-24T13:41:57.511Z,4052
2017-02-24T13:43:06.836Z,4140
2017-02-24T13:44:16.569Z,4692
2017-02-24T13:45:26.299Z,5452
2017-02-24T13:46:36.439Z,5976
2017-02-24T13:47:45.785Z,6504
2017-02-24T13:48:54.696Z,7296
2017-02-24T13:50:04.193Z,9212
2017-02-24T13:51:13.918Z,11420
2017-02-24T13:52:22.834Z,11152
2017-02-24T13:53:32.172Z,12636
2017-02-24T13:54:41.918Z,11792
2017-02-24T13:55:51.429Z,8604
2017-02-24T13:57:00.766Z,7664
2017-02-24T13:58:10.125Z,5232
2017-02-24T13:59:20.288Z,3668
2017-02-24T14:00:30.432Z,2820
2017-02-24T14:01:39.521Z,1988
2017-02-24T14:02:48.856Z,1476
2017-02-24T14:03:58.207Z,1132
2017-02-24T14:05:07.946Z,948
2017-02-24T14:06:17.679Z,812
2017-02-24T14:07:27.436Z,732
2017-02-24T14:08:37.196Z,760
2017-02-24T14:09:46.513Z,1008
2017-02-24T14:10:56.250Z,1292
2017-02-24T14:12:05.206Z,1896
2017-02-24T14:13:14.670Z,2916
2017-02-24T14:14:24.003Z,4940
2017-02-24T14:15:33.337Z,7820
2017-02-24T14:16:42.253Z,11436
2017-02-24T14:17:51.184Z,59648
2017-02-24T14:19:00.972Z,62656
2017-02-24T14:20:10.339Z,58368
2017-02-24T14:21:19.683Z,48992
2017-02-24T14:22:29.030Z,50080
2017-02-24T14:23:38.352Z,35808
2017-02-24T14:24:47.961Z,23584
2017-02-24T14:25:58.120Z,12588
2017-02-24T14:27:07.460Z,11764
2017-02-24T14:28:16.389Z,8316
2017-02-24T14:29:26.541Z,15136
2017-02-24T14:30:36.123Z,16384
2017-02-24T14:31:45.451Z,14168
2017-02-24T14:32:55.180Z,13108
2017-02-24T14:34:05.334Z,16064
2017-02-24T14:35:14.663Z,16096
2017-02-24T14:36:24.191Z,15072
2017-02-24T14:37:33.524Z,15648
2017-02-24T14:38:42.854Z,16960
2017-02-24T14:39:52.202Z,15412
2017-02-24T14:41:01.139Z,12544
2017-02-24T14:42:10.626Z,11596
2017-02-24T14:43:20.371Z,8532
2017-02-24T14:44:30.120Z,7504
2017-02-24T14:45:39.038Z,7324
2017-02-24T14:46:47.955Z,7056
2017-02-24T14:47:58.159Z,6752
2017-02-24T14:49:07.483Z,6436
2017-02-24T14:50:17.236Z,5680
2017-02-24T14:51:26.163Z,5384
2017-02-24T14:52:36.333Z,5228
2017-02-24T14:53:46.679Z,5296
2017-02-24T14:54:55.590Z,5264
2017-02-24T14:56:05.352Z,4788
2017-02-24T14:57:14.695Z,4800
2017-02-24T14:58:23.705Z,5496
2017-02-24T14:59:32.783Z,7264
2017-02-24T15:00:42.529Z,8460
2017-02-24T15:01:52.670Z,17728
2017-02-24T15:03:01.622Z,32672
2017-02-24T15:04:11.764Z,26944
2017-02-24T15:05:21.088Z,22816
2017-02-24T15:06:30.445Z,22432
2017-02-24T15:07:40.595Z,16384
2017-02-24T15:08:49.523Z,15232
2017-02-24T15:09:58.847Z,20832
2017-02-24T15:11:08.228Z,16256
2017-02-24T15:12:17.561Z,6340
2017-02-24T15:13:26.483Z,4404
2017-02-24T15:14:35.834Z,4136
2017-02-24T15:15:44.773Z,4280
2017-02-24T15:16:53.689Z,4508
2017-02-24T15:18:03.025Z,4332
2017-02-24T15:19:11.953Z,5012
2017-02-24T15:20:21.296Z,4296
2017-02-24T15:21:31.057Z,4296
2017-02-24T15:22:40.399Z,3852
2017-02-24T15:23:49.319Z,3760
2017-02-24T15:24:58.650Z,3948
2017-02-24T15:26:08.379Z,4368
2017-02-24T15:27:18.129Z,17056
2017-02-24T15:28:28.301Z,16800
2017-02-24T15:29:37.212Z,8364
2017-02-24T15:30:46.491Z,6668
2017-02-24T15:31:55.408Z,12412
2017-02-24T15:33:05.558Z,19744
2017-02-24T15:34:14.893Z,23072
2017-02-24T15:35:24.214Z,21952
2017-02-24T15:36:33.696Z,16192
2017-02-24T15:37:43.433Z,17888
2017-02-24T15:38:52.389Z,14816
2017-02-24T15:40:01.731Z,15168
2017-02-24T15:41:11.482Z,17664
2017-02-24T15:42:20.664Z,15264
2017-02-24T15:43:29.587Z,13616
2017-02-24T15:44:38.503Z,18112
2017-02-24T15:45:47.837Z,20192
2017-02-24T15:46:57.159Z,23616
2017-02-24T15:48:06.637Z,13952
2017-02-24T15:49:15.984Z,7920
2017-02-24T15:50:25.725Z,7452
2017-02-24T15:51:35.470Z,7568
2017-02-24T15:52:44.800Z,7940
2017-02-24T15:53:53.834Z,8136
2017-02-24T15:55:03.566Z,7516
2017-02-24T15:56:12.489Z,7100
2017-02-24T15:57:21.836Z,6824
2017-02-24T15:58:30.753Z,6648
2017-02-24T15:59:40.237Z,6072